Time;durP1;ratioP1;P1;durP2;ratioP2;P2;SDS_P1;SDS_P2;PMS_P1;PMS_P2;Temp;Humidity;BMP_temperature;BMP_pressure;BME280_temperature;BME280_humidity;BME280_pressure;Samples;Min_cycle;Max_cycle;Signal;HPM_P1;HPM_P2
2021/08/04 00:01:57;;;;;;;29.67;6.63;;;;;;;22.54;46.56;93468.78;5112823;28;20027;-53
2021/08/04 00:04:22;;;;;;;12.18;4.60;;;;;;;22.48;47.30;93471.31;5112885;28;20109;-48
2021/08/04 00:06:47;;;;;;;12.23;4.47;;;;;;;22.42;46.73;93479.44;5112558;27;20027;-49
2021/08/04 00:09:13;;;;;;;5.50;4.22;;;;;;;22.39;46.42;93477.88;5112560;28;20050;-47
2021/08/04 00:11:39;;;;;;;8.73;4.63;;;;;;;22.31;47.11;93468.31;5113065;28;20098;-49
2021/08/04 00:14:04;;;;;;;7.10;4.53;;;;;;;22.23;45.73;93463.00;5112695;28;20035;-48
2021/08/04 00:16:30;;;;;;;6.40;3.60;;;;;;;22.22;46.41;93464.34;5112938;28;20023;-48
2021/08/04 00:56:56;;;;;;;7.65;3.85;;;;;;;22.88;45.60;93469.81;5064452;27;1357906;-51
2021/08/04 00:59:21;;;;;;;7.25;3.80;;;;;;;22.70;46.59;93480.16;5127801;28;20096;-50
2021/08/04 01:01:50;;;;;;;5.70;3.72;;;;;;;22.44;46.83;93479.56;5117005;28;20042;-52
2021/08/04 01:04:18;;;;;;;;;;;;;;;22.37;46.84;93483.41;5089762;28;20435;-57
2021/08/04 01:07:04;;;;;;;6.43;4.13;;;;;;;22.13;47.98;93487.81;5107578;28;19973;-58
2021/08/04 01:09:47;;;;;;;9.50;4.80;;;;;;;22.04;48.54;93485.19;5118317;28;20073;-57
2021/08/04 01:12:18;;;;;;;7.15;5.05;;;;;;;21.87;48.79;93497.69;5109803;28;20023;-57
2021/08/04 01:14:44;;;;;;;14.18;4.95;;;;;;;21.75;48.56;93503.34;5127650;28;20030;-54
2021/08/04 01:17:10;;;;;;;7.47;4.60;;;;;;;21.64;49.17;93497.78;5109292;28;20031;-56
2021/08/04 01:19:53;;;;;;;11.82;5.60;;;;;;;21.50;49.29;93485.81;5106715;28;20114;-55
2021/08/04 01:22:34;;;;;;;5.82;4.38;;;;;;;21.53;50.12;93498.59;5106899;28;20036;-52
2021/08/04 01:25:09;;;;;;;8.85;4.60;;;;;;;21.49;50.31;93507.53;5089171;28;20488;-52
2021/08/04 01:27:37;;;;;;;10.05;3.88;;;;;;;21.43;50.12;93506.47;5098997;28;20024;-49
2021/08/04 01:30:03;;;;;;;25.70;6.18;;;;;;;21.26;51.51;93510.50;5062845;28;20052;-50
2021/08/04 01:32:29;;;;;;;10.75;4.00;;;;;;;21.25;50.72;93509.00;5054722;28;20025;-49
2021/08/04 01:34:55;;;;;;;8.82;4.38;;;;;;;21.16;51.92;93512.00;5072928;28;20039;-53
2021/08/04 01:37:25;;;;;;;9.20;4.97;;;;;;;21.12;51.88;93518.09;5055356;28;20020;-52
2021/08/04 01:39:51;;;;;;;9.75;4.18;;;;;;;21.05;52.33;93517.03;5072985;28;20382;-52
2021/08/04 01:42:17;;;;;;;6.15;4.00;;;;;;;20.80;53.03;93516.25;5073022;28;20104;-53
2021/08/04 01:44:43;;;;;;;12.32;5.18;;;;;;;20.65;52.93;93511.16;5061096;28;20522;-54
2021/08/04 01:47:09;;;;;;;7.70;4.60;;;;;;;20.50;53.32;93512.44;5063603;28;20016;-52
2021/08/04 01:49:35;;;;;;;10.27;4.50;;;;;;;20.56;52.84;93518.38;5082677;28;20024;-51
2021/08/04 01:52:01;;;;;;;5.82;4.20;;;;;;;20.58;51.91;93506.53;5063571;28;20025;-51
2021/08/04 01:54:27;;;;;;;6.97;4.07;;;;;;;20.59;53.05;93516.44;5064540;28;20437;-53
2021/08/04 01:56:53;;;;;;;7.43;4.13;;;;;;;20.53;53.19;93511.19;5091199;28;20602;-51
2021/08/04 01:59:21;;;;;;;6.22;4.30;;;;;;;20.28;53.97;93520.28;5096082;28;20023;-53
2021/08/04 02:01:47;;;;;;;12.85;5.22;;;;;;;20.25;54.72;93523.53;5112400;28;20030;-50
2021/08/04 02:04:12;;;;;;;6.35;4.43;;;;;;;20.28;54.72;93514.66;5112869;28;20024;-50
2021/08/04 02:06:52;;;;;;;6.90;4.50;;;;;;;20.26;54.34;93528.56;5100644;28;20062;-52
2021/08/04 02:09:31;;;;;;;5.47;4.32;;;;;;;20.23;54.46;93529.78;5091488;28;20024;-57
2021/08/04 02:12:06;;;;;;;6.78;4.50;;;;;;;20.17;55.21;93523.03;5092820;28;20031;-57
2021/08/04 02:14:59;;;;;;;6.40;4.45;;;;;;;20.11;55.07;93522.69;5092644;28;20032;-51
2021/08/04 02:17:43;;;;;;;7.07;4.47;;;;;;;20.12;54.60;93524.16;5054365;28;20031;-49
2021/08/04 02:20:20;;;;;;;7.05;4.18;;;;;;;20.11;55.09;93529.03;5072293;28;20033;-49
2021/08/04 02:22:51;;;;;;;6.13;4.10;;;;;;;20.10;55.42;93526.81;5072276;28;20029;-50
2021/08/04 02:25:38;;;;;;;6.70;4.35;;;;;;;20.10;55.33;93532.44;5070853;28;20036;-49
2021/08/04 02:28:07;;;;;;;8.25;4.47;;;;;;;19.93;55.90;93530.72;5082981;28;20047;-48
2021/08/04 02:30:33;;;;;;;10.75;5.05;;;;;;;19.78;56.31;93536.06;5092333;28;20020;-50
2021/08/04 02:32:59;;;;;;;15.90;4.82;;;;;;;19.60;56.45;93527.28;5073994;28;20028;-51
2021/08/04 02:35:25;;;;;;;10.00;4.40;;;;;;;19.59;56.35;93523.75;5092249;28;20050;-49
2021/08/04 02:37:51;;;;;;;10.18;4.28;;;;;;;19.65;56.06;93523.41;5092234;28;20472;-48
2021/08/04 02:40:17;;;;;;;6.68;4.32;;;;;;;19.73;55.90;93529.47;5091910;28;20028;-49
2021/08/04 02:42:44;;;;;;;5.90;4.30;;;;;;;19.73;56.11;93534.38;5082685;28;20020;-50
2021/08/04 02:45:10;;;;;;;9.60;5.28;;;;;;;19.48;56.22;93537.75;5053696;28;20493;-48
2021/08/04 02:47:36;;;;;;;11.93;6.60;;;;;;;19.24;57.29;93550.91;5071724;28;20024;-48
2021/08/04 02:50:04;;;;;;;11.98;6.80;;;;;;;19.28;56.55;93539.22;5053842;28;20099;-49
2021/08/04 02:52:30;;;;;;;14.77;6.70;;;;;;;19.33;56.64;93536.09;5071289;28;20052;-50
2021/08/04 02:54:56;;;;;;;12.63;5.70;;;;;;;19.26;56.99;93545.44;5053564;28;20056;-49
2021/08/04 02:57:21;;;;;;;15.40;5.60;;;;;;;19.12;56.72;93547.34;5053834;28;20055;-51
2021/08/04 02:59:47;;;;;;;10.32;5.75;;;;;;;19.21;57.31;93557.00;5071133;28;20017;-53
2021/08/04 03:02:12;;;;;;;10.65;6.60;;;;;;;19.14;57.25;93550.28;5071504;28;20021;-56
2021/08/04 03:04:38;;;;;;;12.43;6.78;;;;;;;18.99;57.83;93545.09;5071081;28;20023;-55
2021/08/04 03:07:03;;;;;;;10.23;7.05;;;;;;;19.02;57.86;93555.09;5071104;28;20037;-57
2021/08/04 03:09:29;;;;;;;7.75;6.22;;;;;;;18.93;57.24;93556.63;5071232;28;20032;-58
2021/08/04 03:11:54;;;;;;;8.50;6.68;;;;;;;18.86;57.76;93549.16;5071011;28;20197;-58
2021/08/04 03:14:20;;;;;;;21.05;7.30;;;;;;;18.86;58.17;93554.75;5070952;28;20028;-57
2021/08/04 03:16:45;;;;;;;10.23;7.45;;;;;;;18.76;58.38;93553.38;5070880;28;20119;-51
2021/08/04 03:19:12;;;;;;;12.30;7.03;;;;;;;18.63;58.54;93559.50;5070742;28;20029;-49
2021/08/04 03:21:37;;;;;;;14.73;7.22;;;;;;;18.60;59.21;93555.13;5053245;28;20036;-48
2021/08/04 03:24:03;;;;;;;12.93;7.20;;;;;;;18.55;59.43;93553.38;5071036;28;20025;-48
2021/08/04 03:26:29;;;;;;;70.07;12.38;;;;;;;18.50;59.50;93551.66;5070730;28;20489;-49
2021/08/04 03:28:54;;;;;;;94.57;16.13;;;;;;;18.52;59.69;93555.31;5108013;28;20023;-49
2021/08/04 03:31:20;;;;;;;14.52;8.60;;;;;;;18.45;59.65;93559.03;5111240;28;20030;-51
2021/08/04 03:33:45;;;;;;;12.77;8.57;;;;;;;18.49;59.46;93566.97;5111244;28;20028;-47
2021/08/04 03:36:11;;;;;;;13.60;8.13;;;;;;;18.45;59.97;93567.41;5111454;28;20031;-49
2021/08/04 03:38:36;;;;;;;12.82;7.47;;;;;;;18.38;59.67;93554.34;5111217;28;20019;-49
2021/08/04 03:41:02;;;;;;;10.38;7.05;;;;;;;18.45;59.04;93563.91;5110729;28;20024;-50
2021/08/04 03:43:27;;;;;;;11.57;6.25;;;;;;;18.55;58.79;93575.75;5096304;28;20036;-48
2021/08/04 03:45:53;;;;;;;10.07;5.88;;;;;;;18.65;58.65;93579.22;5091017;28;20028;-47
2021/08/04 03:48:18;;;;;;;8.65;6.60;;;;;;;18.65;59.39;93573.63;5090848;28;20086;-47
2021/08/04 03:50:44;;;;;;;8.00;5.72;;;;;;;18.70;58.56;93576.09;5090944;28;20028;-48
2021/08/04 03:53:09;;;;;;;9.50;6.20;;;;;;;18.80;58.60;93587.19;5090593;28;20458;-49
2021/08/04 03:55:34;;;;;;;10.38;6.95;;;;;;;18.68;58.50;93584.34;5090593;28;20048;-48
2021/08/04 03:58:00;;;;;;;14.43;7.75;;;;;;;18.72;58.50;93579.03;5090349;28;20031;-49
2021/08/04 04:00:25;;;;;;;17.83;6.80;;;;;;;18.76;58.85;93592.53;5090519;28;20016;-48
2021/08/04 04:02:51;;;;;;;9.23;5.88;;;;;;;18.89;58.89;93586.41;5090733;28;20115;-47
2021/08/04 04:05:16;;;;;;;11.80;6.70;;;;;;;18.93;58.58;93592.25;5090440;28;20134;-47
2021/08/04 04:07:42;;;;;;;12.23;6.82;;;;;;;18.96;58.76;93590.34;5090708;28;20055;-47
2021/08/04 04:10:08;;;;;;;12.52;6.20;;;;;;;18.95;58.94;93594.47;5090655;28;20031;-48
2021/08/04 04:12:34;;;;;;;10.98;5.95;;;;;;;18.93;59.43;93598.59;5090568;28;20111;-52
2021/08/04 04:14:59;;;;;;;10.30;6.25;;;;;;;18.92;59.50;93605.53;5090600;28;20031;-51
2021/08/04 04:17:24;;;;;;;11.05;6.63;;;;;;;18.81;59.35;93597.81;5090639;28;20511;-54
2021/08/04 04:19:50;;;;;;;13.60;5.38;;;;;;;18.87;60.15;93597.47;5090440;28;20038;-53
2021/08/04 04:22:15;;;;;;;12.18;6.13;;;;;;;18.88;59.92;93599.66;5090501;28;20409;-51
2021/08/04 04:24:41;;;;;;;7.43;5.38;;;;;;;19.06;59.59;93599.41;5104908;28;20031;-51
2021/08/04 04:27:06;;;;;;;7.65;5.20;;;;;;;19.02;59.47;93608.25;5110232;28;20026;-51
2021/08/04 04:29:32;;;;;;;20.33;6.43;;;;;;;19.04;59.94;93613.25;5110486;28;20026;-51
2021/08/04 04:31:57;;;;;;;16.95;6.05;;;;;;;18.99;59.80;93594.75;5110520;28;20039;-51
2021/08/04 04:34:23;;;;;;;16.35;5.72;;;;;;;19.02;59.71;93604.72;5110775;28;20026;-53
2021/08/04 04:36:48;;;;;;;11.10;6.00;;;;;;;19.08;60.21;93608.63;5110455;28;20156;-54
2021/08/04 04:39:13;;;;;;;12.50;6.03;;;;;;;19.13;60.47;93612.44;5110377;28;20060;-51
2021/08/04 04:41:39;;;;;;;9.35;6.28;;;;;;;19.04;60.84;93596.44;5110334;28;20028;-54
2021/08/04 04:44:04;;;;;;;16.35;6.78;;;;;;;19.19;60.31;93610.75;5090478;28;20115;-51
2021/08/04 04:46:30;;;;;;;10.45;5.70;;;;;;;19.22;60.56;93615.16;5090287;28;20024;-51
2021/08/04 04:48:55;;;;;;;14.40;6.45;;;;;;;19.29;60.56;93621.91;5090369;28;20031;-53
2021/08/04 04:51:21;;;;;;;10.50;5.53;;;;;;;19.33;60.52;93616.56;5090240;28;20028;-52
2021/08/04 04:53:46;;;;;;;12.15;6.28;;;;;;;19.38;60.29;93621.81;5090242;28;20028;-54
2021/08/04 04:56:11;;;;;;;15.50;5.75;;;;;;;19.45;59.67;93618.09;5089865;28;20051;-52
2021/08/04 04:58:37;;;;;;;19.38;6.03;;;;;;;19.57;59.55;93623.72;5089910;28;20401;-51
2021/08/04 05:01:03;;;;;;;12.57;5.80;;;;;;;19.64;59.38;93634.69;5090112;28;20394;-50
2021/08/04 05:03:28;;;;;;;21.52;6.22;;;;;;;19.67;59.72;93629.97;5089827;28;20412;-52
2021/08/04 05:05:54;;;;;;;26.85;5.63;;;;;;;19.72;58.68;93626.09;5067306;28;20029;-50
2021/08/04 05:08:19;;;;;;;14.32;6.40;;;;;;;19.85;59.31;93624.78;5071348;28;20117;-50
2021/08/04 05:10:45;;;;;;;19.85;12.27;;;;;;;19.85;58.99;93630.38;5071365;28;20485;-50
2021/08/04 05:13:10;;;;;;;17.15;11.88;;;;;;;19.90;59.63;93632.84;5070896;28;20115;-52
2021/08/04 05:15:35;;;;;;;38.00;15.35;;;;;;;19.99;60.15;93637.59;5070890;28;20028;-51
2021/08/04 05:18:01;;;;;;;23.77;15.93;;;;;;;20.02;59.59;93635.66;5070348;28;20060;-51
2021/08/04 05:20:27;;;;;;;22.33;15.57;;;;;;;20.07;60.35;93635.31;5091956;28;20039;-55
2021/08/04 05:22:52;;;;;;;17.30;12.82;;;;;;;20.21;59.85;93629.84;5111548;28;20031;-55
2021/08/04 05:25:18;;;;;;;55.35;12.50;;;;;;;20.31;60.50;93633.28;5111437;28;20106;-53
2021/08/04 05:27:43;;;;;;;10.82;8.23;;;;;;;20.45;59.17;93633.41;5106333;28;20054;-53
2021/08/04 05:30:09;;;;;;;12.13;8.77;;;;;;;20.51;59.77;93630.97;5110988;28;20255;-54
2021/08/04 05:32:35;;;;;;;12.18;8.65;;;;;;;20.59;59.33;93631.44;5109143;28;20031;-55
2021/08/04 05:35:00;;;;;;;13.00;8.70;;;;;;;20.66;58.27;93628.38;5111485;28;20030;-55
2021/08/04 05:37:26;;;;;;;13.65;8.80;;;;;;;20.71;58.19;93632.91;5111460;28;20038;-53
2021/08/04 05:39:51;;;;;;;10.55;7.55;;;;;;;20.84;59.21;93632.28;5111117;28;20023;-54
2021/08/04 05:42:16;;;;;;;44.58;9.82;;;;;;;20.99;59.46;93639.44;5106412;28;20054;-55
2021/08/04 05:44:43;;;;;;;12.65;8.27;;;;;;;21.13;59.61;93632.63;5090763;28;20503;-54
2021/08/04 05:47:08;;;;;;;25.73;8.93;;;;;;;21.25;59.21;93629.03;5090502;28;20031;-54
2021/08/04 05:49:34;;;;;;;48.45;7.72;;;;;;;21.37;59.55;93638.16;5090263;28;20024;-54
2021/08/04 05:52:00;;;;;;;10.50;6.97;;;;;;;21.50;59.46;93641.06;5090180;28;20028;-54
2021/08/04 05:54:26;;;;;;;13.10;6.68;;;;;;;21.62;59.68;93644.53;5090381;28;20028;-52
2021/08/04 05:56:51;;;;;;;19.90;7.30;;;;;;;21.84;59.76;93648.63;5090224;28;20102;-55
2021/08/04 05:59:16;;;;;;;10.48;6.18;;;;;;;22.00;59.21;93651.59;5090726;28;20043;-53
2021/08/04 06:01:42;;;;;;;11.55;6.53;;;;;;;22.09;58.79;93655.59;5090350;28;20511;-54
2021/08/04 06:04:07;;;;;;;10.88;6.85;;;;;;;22.32;59.20;93652.63;5090015;28;20039;-54
2021/08/04 06:06:33;;;;;;;10.68;7.30;;;;;;;22.53;59.53;93644.63;5090029;28;20125;-55
2021/08/04 06:08:58;;;;;;;9.35;6.65;;;;;;;22.81;58.76;93658.75;5090148;28;20024;-56
2021/08/04 06:11:24;;;;;;;9.43;6.80;;;;;;;22.88;58.35;93638.00;5089917;28;20039;-55
2021/08/04 06:13:49;;;;;;;10.15;7.00;;;;;;;22.97;58.63;93643.44;5090188;28;20059;-54
2021/08/04 06:16:15;;;;;;;11.18;6.90;;;;;;;23.16;57.85;93650.72;5096629;28;20031;-53
2021/08/04 06:18:40;;;;;;;16.25;7.22;;;;;;;23.32;58.53;93655.06;5110087;28;20031;-54
2021/08/04 06:21:06;;;;;;;12.60;7.18;;;;;;;23.47;57.20;93658.63;5091991;28;20056;-51
2021/08/04 06:23:31;;;;;;;9.27;6.90;;;;;;;23.55;57.52;93659.75;5069852;28;20081;-57
2021/08/04 06:25:57;;;;;;;24.10;7.57;;;;;;;23.69;57.03;93660.44;5069977;28;20036;-53
2021/08/04 06:28:22;;;;;;;12.60;7.30;;;;;;;23.78;57.73;93661.59;5101809;28;20469;-55
2021/08/04 06:30:48;;;;;;;17.20;7.57;;;;;;;23.84;56.25;93651.31;5110263;28;20031;-56
2021/08/04 06:33:15;;;;;;;7.45;6.30;;;;;;;24.04;55.00;93671.28;5108260;28;20023;-57
2021/08/04 06:35:40;;;;;;;18.20;7.20;;;;;;;24.13;54.27;93653.41;5110068;28;20028;-56
2021/08/04 06:38:06;;;;;;;12.02;6.55;;;;;;;24.16;55.06;93662.69;5091509;28;20096;-56
2021/08/04 06:40:31;;;;;;;10.95;6.32;;;;;;;24.28;54.30;93654.81;5109881;28;20031;-56
2021/08/04 06:42:57;;;;;;;9.38;6.70;;;;;;;24.36;53.59;93658.00;5099325;28;20024;-55
2021/08/04 06:45:22;;;;;;;10.50;6.32;;;;;;;24.49;52.95;93660.75;5089322;28;20149;-55
2021/08/04 06:47:47;;;;;;;9.68;6.50;;;;;;;24.57;52.77;93654.75;5089249;28;20046;-56
2021/08/04 06:50:13;;;;;;;14.32;6.85;;;;;;;24.64;52.80;93651.56;5089260;28;20024;-57
2021/08/04 06:52:38;;;;;;;13.20;5.93;;;;;;;24.77;51.74;93652.84;5088784;28;20045;-58
2021/08/04 06:55:04;;;;;;;10.63;6.13;;;;;;;24.84;51.33;93651.75;5089209;28;20085;-52
2021/08/04 06:57:29;;;;;;;16.02;6.18;;;;;;;24.87;52.08;93647.66;5089460;28;20032;-57
2021/08/04 06:59:55;;;;;;;15.77;7.25;;;;;;;25.01;50.79;93659.59;5089008;28;20039;-57
2021/08/04 07:02:20;;;;;;;8.98;5.88;;;;;;;25.17;50.13;93657.44;5088966;28;20035;-56
2021/08/04 07:04:46;;;;;;;8.55;6.07;;;;;;;25.18;49.67;93636.31;5088847;28;20043;-57
2021/08/04 07:07:15;;;;;;;8.43;5.47;;;;;;;25.38;49.37;93656.94;5088839;28;20028;-57
2021/08/04 07:09:41;;;;;;;16.05;6.25;;;;;;;25.42;48.09;93653.59;5088997;28;20102;-56
2021/08/04 07:12:08;;;;;;;14.48;5.78;;;;;;;25.51;46.31;93644.09;5092643;28;20145;-55
2021/08/04 07:14:34;;;;;;;9.00;5.70;;;;;;;25.64;46.50;93648.88;5109013;28;20027;-54
2021/08/04 07:17:00;;;;;;;9.77;5.60;;;;;;;25.75;46.74;93647.19;5109340;28;20046;-57
2021/08/04 07:19:26;;;;;;;9.60;5.30;;;;;;;25.80;41.82;93643.88;5109444;28;20024;-55
2021/08/04 07:21:51;;;;;;;13.27;5.00;;;;;;;25.96;40.53;93643.78;5106077;28;20054;-57
2021/08/04 07:24:17;;;;;;;12.20;4.85;;;;;;;26.02;39.78;93641.19;5109004;28;20086;-57
2021/08/04 07:26:43;;;;;;;9.13;4.72;;;;;;;26.19;38.30;93637.66;5103922;28;20070;-55
2021/08/04 07:29:09;;;;;;;16.98;4.97;;;;;;;26.26;38.86;93625.19;5108464;28;20058;-57
2021/08/04 07:31:35;;;;;;;8.65;4.70;;;;;;;26.43;38.08;93632.19;5109162;28;20133;-57
2021/08/04 07:34:01;;;;;;;11.38;5.55;;;;;;;26.51;38.92;93624.75;5106690;28;20146;-57
2021/08/04 07:36:26;;;;;;;9.27;4.18;;;;;;;26.90;36.01;93644.63;5108420;28;20114;-58
2021/08/04 07:38:52;;;;;;;9.93;4.95;;;;;;;27.25;36.55;93638.09;5108830;28;20032;-57
2021/08/04 07:41:17;;;;;;;9.57;4.53;;;;;;;27.76;35.27;93637.75;5108804;28;20027;-56
2021/08/04 07:43:44;;;;;;;9.85;4.50;;;;;;;28.26;35.53;93630.84;5092367;28;20028;-57
2021/08/04 07:46:10;;;;;;;12.02;5.07;;;;;;;28.95;34.09;93630.84;5088378;28;20039;-57
2021/08/04 07:48:35;;;;;;;12.00;5.53;;;;;;;29.71;34.29;93635.06;5088217;28;20089;-59
2021/08/04 07:51:02;;;;;;;9.38;4.45;;;;;;;30.57;31.62;93639.31;5088550;28;20052;-58
2021/08/04 07:53:29;;;;;;;23.45;5.55;;;;;;;31.23;29.43;93642.88;5088024;28;20118;-58
2021/08/04 07:55:54;;;;;;;12.10;4.53;;;;;;;31.78;29.87;93641.06;5087929;28;20508;-59
2021/08/04 07:58:20;;;;;;;7.97;4.82;;;;;;;32.04;28.45;93636.56;5088244;28;20066;-58
2021/08/04 08:00:45;;;;;;;20.75;5.32;;;;;;;32.17;30.07;93643.94;5088307;28;20027;-58
2021/08/04 08:03:10;;;;;;;11.50;5.03;;;;;;;32.47;28.57;93649.44;5088246;28;20384;-57
2021/08/04 08:05:36;;;;;;;8.25;4.38;;;;;;;33.30;27.48;93642.00;5087930;28;20047;-58
2021/08/04 08:08:08;;;;;;;7.75;4.20;;;;;;;34.30;25.95;93648.81;5089002;28;20020;-59
2021/08/04 08:10:40;;;;;;;7.40;3.40;;;;;;;34.91;21.97;93634.94;5108263;28;20043;-58
2021/08/04 08:13:06;;;;;;;24.23;4.60;;;;;;;35.85;22.37;93631.00;5108605;28;20038;-59
2021/08/04 08:15:32;;;;;;;39.92;4.97;;;;;;;36.57;21.34;93627.53;5108365;28;20027;-59
2021/08/04 08:17:57;;;;;;;23.70;4.18;;;;;;;37.25;20.60;93630.28;5107717;28;20428;-58
2021/08/04 08:20:24;;;;;;;16.38;3.78;;;;;;;38.16;19.03;93629.84;5107210;28;20093;-59
2021/08/04 08:22:50;;;;;;;8.48;3.28;;;;;;;38.40;18.65;93630.41;5107840;28;20039;-59
2021/08/04 08:25:17;;;;;;;8.65;3.95;;;;;;;38.23;19.15;93634.84;5108039;28;20539;-58
2021/08/04 08:27:43;;;;;;;13.40;4.03;;;;;;;38.62;18.96;93633.09;5103555;28;20027;-59
2021/08/04 08:30:10;;;;;;;8.88;3.47;;;;;;;38.75;17.39;93630.84;5108066;28;20023;-58
2021/08/04 08:32:36;;;;;;;18.48;3.88;;;;;;;38.59;18.33;93628.81;5106673;28;20167;-59
2021/08/04 08:35:02;;;;;;;8.07;3.90;;;;;;;38.64;17.47;93632.34;5107996;28;20469;-58
2021/08/04 08:37:27;;;;;;;7.05;3.25;;;;;;;39.20;17.54;93628.97;5106338;28;20028;-58
2021/08/04 08:39:53;;;;;;;10.65;4.05;;;;;;;39.89;17.65;93616.56;5101020;28;20023;-59
2021/08/04 08:42:20;;;;;;;14.25;3.92;;;;;;;40.57;16.40;93620.63;5087351;28;20012;-58
2021/08/04 08:44:47;;;;;;;17.10;4.15;;;;;;;40.70;15.52;93616.78;5072430;28;20032;-58
2021/08/04 08:47:13;;;;;;;10.05;3.53;;;;;;;41.29;16.12;93612.84;5072300;28;20028;-59
2021/08/04 08:49:38;;;;;;;10.65;3.55;;;;;;;41.39;16.33;93613.38;5072302;28;20055;-57
2021/08/04 08:52:04;;;;;;;11.15;3.72;;;;;;;41.42;15.98;93622.75;5073707;28;20032;-56
2021/08/04 08:54:30;;;;;;;10.07;3.53;;;;;;;40.99;15.14;93617.03;5073925;28;20115;-57
2021/08/04 08:56:56;;;;;;;8.75;3.40;;;;;;;41.25;15.00;93619.44;5073464;28;20041;-58
2021/08/04 08:59:21;;;;;;;8.77;3.05;;;;;;;41.69;14.86;93606.28;5089970;28;20034;-57
2021/08/04 09:01:47;;;;;;;6.07;2.92;;;;;;;39.98;15.85;93615.00;5114442;28;20020;-58
2021/08/04 09:04:17;;;;;;;8.70;2.60;;;;;;;39.76;15.26;93612.41;5095815;28;20519;-58
2021/08/04 09:06:44;;;;;;;9.75;3.00;;;;;;;39.56;16.02;93610.50;5113889;28;20024;-58
2021/08/04 09:09:29;;;;;;;33.20;4.50;;;;;;;40.19;15.94;93606.75;5105568;28;20477;-56
2021/08/04 09:11:55;;;;;;;5.78;2.55;;;;;;;40.48;15.66;93604.88;5114292;28;20019;-59
2021/08/04 09:14:40;;;;;;;8.48;3.17;;;;;;;40.56;15.27;93596.78;5113875;28;20548;-59
2021/08/04 09:17:11;;;;;;;6.00;2.92;;;;;;;40.58;15.21;93596.00;5113850;28;20526;-58
2021/08/04 09:19:42;;;;;;;9.55;3.13;;;;;;;40.61;15.43;93597.41;5113597;28;20024;-59
2021/08/04 09:22:08;;;;;;;7.70;3.05;;;;;;;39.92;16.16;93597.72;5113778;28;20031;-59
2021/08/04 09:24:55;;;;;;;7.72;3.15;;;;;;;39.36;15.85;93590.50;5113731;28;20039;-59
2021/08/04 09:27:36;;;;;;;8.55;2.95;;;;;;;38.28;16.14;93595.16;5107642;28;20034;-59
2021/08/04 09:30:03;;;;;;;10.45;3.17;;;;;;;37.46;17.09;93588.47;5093159;28;20032;-58
2021/08/04 09:32:31;;;;;;;6.97;2.55;;;;;;;38.08;17.02;93590.25;5093543;28;20042;-58
2021/08/04 09:34:57;;;;;;;10.45;4.22;;;;;;;37.54;17.14;93581.91;5092486;28;20028;-57
2021/08/04 09:37:22;;;;;;;11.98;4.50;;;;;;;36.82;18.43;93582.91;5092670;28;20047;-58
2021/08/04 09:39:54;;;;;;;11.32;3.28;;;;;;;36.89;17.41;93587.19;5093033;28;20044;-58
2021/08/04 09:42:21;;;;;;;9.30;3.05;;;;;;;37.29;17.74;93581.31;5093046;28;20024;-60
2021/08/04 09:44:52;;;;;;;13.15;3.58;;;;;;;37.32;17.89;93576.25;5093211;28;20169;-58
2021/08/04 09:47:18;;;;;;;9.52;3.38;;;;;;;38.04;17.45;93578.75;5092859;28;20040;-58
2021/08/04 09:50:03;;;;;;;10.40;3.20;;;;;;;39.35;16.89;93575.34;5092781;28;20038;-59
2021/08/04 09:52:31;;;;;;;6.90;3.28;;;;;;;40.27;15.34;93577.69;5068967;28;20088;-60
2021/08/04 09:55:10;;;;;;;;;;;;;;;40.70;15.13;93572.63;5070965;28;20062;-59
2021/08/04 09:57:40;;;;;;;10.32;3.45;;;;;;;41.29;13.29;93575.19;5069780;28;19908;-59
2021/08/04 10:00:08;;;;;;;12.25;3.20;;;;;;;41.66;14.28;93580.97;5069836;28;20036;-59
2021/08/04 10:02:33;;;;;;;;;;;;;;;41.06;14.90;93574.19;5106079;28;20108;-59
2021/08/04 10:05:21;;;;;;;9.70;2.90;;;;;;;41.46;14.29;93574.09;5110594;28;20430;-59
2021/08/04 10:08:06;;;;;;;11.05;2.58;;;;;;;41.97;13.36;93570.84;5110324;28;20115;-59
2021/08/04 10:10:34;;;;;;;8.27;3.10;;;;;;;42.38;13.12;93569.91;5110574;28;20055;-59
2021/08/04 10:13:01;;;;;;;7.80;3.15;;;;;;;42.19;13.62;93560.94;5110694;28;20064;-59
2021/08/04 10:15:28;;;;;;;9.17;2.90;;;;;;;42.30;12.73;93562.09;5110621;28;20076;-60
2021/08/04 10:17:53;;;;;;;7.45;2.80;;;;;;;41.87;13.25;93561.63;5110609;28;20099;-59
2021/08/04 10:20:20;;;;;;;10.73;3.25;;;;;;;41.71;14.05;93559.84;5092356;28;20118;-59
2021/08/04 10:22:45;;;;;;;7.70;2.72;;;;;;;42.38;13.31;93564.09;5092133;28;20019;-59
2021/08/04 10:25:11;;;;;;;8.23;2.72;;;;;;;43.02;12.01;93562.44;5092229;28;20412;-59
2021/08/04 10:27:37;;;;;;;8.45;2.60;;;;;;;43.86;11.73;93555.72;5105401;28;20389;-60
2021/08/04 10:30:03;;;;;;;12.38;3.47;;;;;;;41.94;12.91;93560.03;5091810;28;20023;-58
2021/08/04 10:32:28;;;;;;;8.25;2.92;;;;;;;41.22;14.04;93565.16;5110256;28;20042;-59
2021/08/04 10:34:56;;;;;;;5.15;2.95;;;;;;;41.70;14.16;93560.56;5109892;28;20046;-59
2021/08/04 10:37:23;;;;;;;7.20;2.60;;;;;;;41.94;13.63;93549.16;5092258;28;20062;-59
2021/08/04 10:39:49;;;;;;;9.93;3.03;;;;;;;42.62;12.43;93551.91;5091743;28;20043;-58
2021/08/04 10:42:14;;;;;;;8.98;3.00;;;;;;;42.50;12.00;93552.91;5105503;28;20020;-59
2021/08/04 10:44:40;;;;;;;6.57;2.97;;;;;;;42.59;12.76;93553.41;5100326;28;20031;-59
2021/08/04 10:47:06;;;;;;;7.88;2.85;;;;;;;42.97;12.98;93543.72;5109651;28;20027;-59
2021/08/04 10:49:34;;;;;;;13.45;3.92;;;;;;;43.48;12.43;93552.47;5109480;28;20027;-58
2021/08/04 10:52:00;;;;;;;7.43;2.38;;;;;;;44.11;12.56;93547.69;5109412;28;20519;-59
2021/08/04 10:54:25;;;;;;;9.30;2.97;;;;;;;43.99;11.37;93548.03;5109375;28;20106;-57
2021/08/04 10:56:51;;;;;;;7.10;2.85;;;;;;;44.24;11.58;93549.44;5107446;28;20095;-59
2021/08/04 10:59:26;;;;;;;9.55;2.55;;;;;;;43.37;11.47;93545.50;5089234;28;20042;-59
2021/08/04 11:01:53;;;;;;;9.60;3.10;;;;;;;42.65;11.81;93536.53;5088939;28;20080;-58
2021/08/04 11:04:28;;;;;;;8.63;3.53;;;;;;;42.78;13.04;93539.84;5088446;28;20035;-59
2021/08/04 11:07:09;;;;;;;5.65;3.17;;;;;;;41.28;13.56;93536.09;5089194;28;20081;-58
2021/08/04 11:09:36;;;;;;;9.40;3.00;;;;;;;41.68;13.09;93543.22;5089151;28;20465;-59
2021/08/04 11:12:04;;;;;;;9.20;3.97;;;;;;;42.11;12.31;93537.88;5088832;28;20534;-59
2021/08/04 11:14:41;;;;;;;8.07;2.75;;;;;;;42.33;12.09;93534.44;5088963;28;20724;-61
2021/08/04 11:17:09;;;;;;;10.73;3.33;;;;;;;41.23;13.77;93529.63;5088751;28;20036;-60
2021/08/04 11:20:09;;;;;;;;;;;;;;;41.41;12.68;93532.16;5089186;28;20032;-59
2021/08/04 11:22:35;;;;;;;9.90;3.55;;;;;;;42.06;13.33;93524.97;5088652;28;20400;-60
2021/08/04 11:25:22;;;;;;;15.25;3.40;;;;;;;41.90;11.96;93517.34;5088996;28;20137;-60
2021/08/04 11:27:48;;;;;;;;;;;;;;;41.35;12.70;93529.41;5094138;28;20024;-60
2021/08/04 11:30:30;;;;;;;8.18;3.03;;;;;;;41.65;12.15;93518.63;5109477;28;19935;-60
2021/08/04 11:33:29;;;;;;;8.27;3.35;;;;;;;41.89;13.03;93509.41;5109096;28;20035;-60
2021/08/04 11:36:12;;;;;;;12.20;3.03;;;;;;;42.06;12.48;93510.47;5109219;28;20106;-60
2021/08/04 11:38:49;;;;;;;10.90;3.47;;;;;;;40.98;11.99;93511.31;5095849;28;20039;-60
2021/08/04 11:41:24;;;;;;;17.77;3.50;;;;;;;40.43;13.67;93513.78;5088585;28;20419;-60
2021/08/04 11:43:57;;;;;;;5.82;3.47;;;;;;;40.21;14.34;93511.25;5068414;28;20674;-60
2021/08/04 11:46:34;;;;;;;6.15;3.00;;;;;;;39.00;14.45;93512.94;5068188;28;20375;-60
2021/08/04 11:49:01;;;;;;;6.88;3.08;;;;;;;38.36;14.62;93503.50;5067840;28;20028;-59
2021/08/04 11:51:34;;;;;;;9.38;3.65;;;;;;;37.95;15.72;93499.53;5067785;28;20051;-60
2021/08/04 11:54:00;;;;;;;11.57;2.75;;;;;;;37.81;16.32;93503.25;5085911;28;20046;-60
2021/08/04 11:56:26;;;;;;;8.85;3.00;;;;;;;38.04;16.05;93495.13;5107968;28;20051;-60
2021/08/04 11:58:52;;;;;;;10.85;3.83;;;;;;;37.63;15.30;93494.72;5108205;28;20031;-59
2021/08/04 12:01:19;;;;;;;9.15;3.45;;;;;;;37.47;15.76;93491.94;5108674;28;20161;-61
2021/08/04 12:03:45;;;;;;;6.43;3.72;;;;;;;37.59;17.10;93491.88;5108540;28;20058;-60
2021/08/04 12:06:17;;;;;;;11.82;3.13;;;;;;;37.73;16.10;93491.75;5090463;28;20042;-60
2021/08/04 12:08:43;;;;;;;13.90;3.47;;;;;;;37.67;16.38;93483.16;5108418;28;20026;-59
2021/08/04 12:11:09;;;;;;;12.98;4.18;;;;;;;37.39;15.96;93482.63;5108436;28;20020;-60